Time;durP1;ratioP1;P1;durP2;ratioP2;P2;SDS_P1;SDS_P2;PMS_P1;PMS_P2;Temp;Humidity;BMP_temperature;BMP_pressure;BME280_temperature;BME280_humidity;BME280_pressure;Samples;Min_cycle;Max_cycle;Signal;HPM_P1;HPM_P2
2021/12/27 00:01:46;;;;;;;32.67;17.75;;;;;;;3.93;100.00;99316.16;20798450;28;20507;-82
2021/12/27 00:11:47;;;;;;;34.90;17.60;;;;;;;3.96;100.00;99321.31;20819279;28;20057;-81
2021/12/27 00:21:49;;;;;;;33.00;17.10;;;;;;;4.01;100.00;99310.06;20828200;28;20495;-82
2021/12/27 00:31:51;;;;;;;33.13;17.00;;;;;;;3.98;100.00;99304.06;20811710;28;20053;-81
2021/12/27 00:41:52;;;;;;;33.38;17.20;;;;;;;3.92;100.00;99319.63;20792601;28;20069;-81
2021/12/27 00:51:54;;;;;;;32.70;18.17;;;;;;;3.95;100.00;99304.94;20794641;28;20103;-82
2021/12/27 01:01:56;;;;;;;33.83;16.55;;;;;;;4.02;100.00;99306.59;20813615;28;20103;-82
2021/12/27 01:12:12;;;;;;;37.35;18.48;;;;;;;4.04;100.00;99310.06;20825311;28;20065;-81
2021/12/27 01:22:16;;;;;;;29.95;15.00;;;;;;;4.09;100.00;99308.28;20807128;28;20054;-81
2021/12/27 01:32:18;;;;;;;34.47;15.93;;;;;;;4.12;100.00;99291.88;20786459;28;20041;-82
2021/12/27 01:42:20;;;;;;;37.30;16.85;;;;;;;4.15;100.00;99301.34;20784369;28;20495;-81
2021/12/27 01:52:22;;;;;;;40.20;17.33;;;;;;;4.16;100.00;99298.72;20770844;28;20042;-81
2021/12/27 02:02:25;;;;;;;43.40;21.13;;;;;;;4.18;100.00;99290.97;20783511;28;20108;-82
2021/12/27 02:12:27;;;;;;;46.65;18.35;;;;;;;4.18;100.00;99286.63;20786460;28;20057;-82
2021/12/27 02:22:34;;;;;;;40.42;18.02;;;;;;;4.20;100.00;99282.28;20819332;28;20100;-82
2021/12/27 02:32:56;;;;;;;42.92;19.98;;;;;;;4.19;100.00;99272.81;20789008;28;20585;-81
2021/12/27 02:43:04;;;;;;;39.35;17.20;;;;;;;4.19;100.00;99267.63;20791861;28;20483;-82
2021/12/27 02:53:07;;;;;;;38.65;17.40;;;;;;;4.23;100.00;99258.97;20798206;28;20565;-82
2021/12/27 03:03:09;;;;;;;39.75;17.60;;;;;;;4.23;100.00;99263.28;20793524;28;20104;-82
2021/12/27 03:13:28;;;;;;;40.38;17.23;;;;;;;4.30;100.00;99260.59;20791421;28;20042;-81
2021/12/27 03:23:31;;;;;;;43.90;17.35;;;;;;;4.35;100.00;99256.25;20769708;28;20042;-81
2021/12/27 03:33:32;;;;;;;53.58;20.40;;;;;;;4.34;100.00;99249.34;20757701;28;20462;-81
2021/12/27 03:43:34;;;;;;;44.33;19.75;;;;;;;4.37;100.00;99251.94;20799001;28;20071;-81
2021/12/27 03:53:35;;;;;;;39.33;16.70;;;;;;;4.36;100.00;99239.84;20781887;28;20049;-81
2021/12/27 04:03:37;;;;;;;43.13;19.00;;;;;;;4.39;100.00;99228.56;20771378;28;20096;-81
2021/12/27 04:13:39;;;;;;;43.95;18.20;;;;;;;4.44;100.00;99233.72;20781892;28;20494;-80
2021/12/27 04:23:41;;;;;;;40.03;18.55;;;;;;;4.47;100.00;99236.28;20807370;28;20556;-81
2021/12/27 04:33:43;;;;;;;41.28;19.70;;;;;;;4.51;100.00;99225.03;20810921;28;20038;-81
2021/12/27 04:43:45;;;;;;;42.13;19.00;;;;;;;4.52;100.00;99218.97;20768637;28;20133;-81
2021/12/27 04:53:51;;;;;;;38.80;18.13;;;;;;;4.53;100.00;99212.91;20778668;28;20058;-81
2021/12/27 05:07:47;;;;;;;40.92;19.60;;;;;;;4.52;100.00;99193.03;20962094;28;20385;-74
2021/12/27 05:17:49;;;;;;;44.70;18.80;;;;;;;4.56;100.00;99195.59;20927275;28;20106;-74
2021/12/27 05:27:50;;;;;;;48.03;20.58;;;;;;;4.61;100.00;99183.44;20927881;28;20486;-74
2021/12/27 05:37:53;;;;;;;56.67;22.63;;;;;;;4.60;100.00;99193.81;20925710;28;20667;-74
2021/12/27 05:47:55;;;;;;;48.83;21.98;;;;;;;4.60;100.00;99175.69;20926527;28;20311;-74
2021/12/27 05:57:56;;;;;;;50.67;21.80;;;;;;;4.60;100.00;99166.16;20924227;28;20505;-74
2021/12/27 06:07:58;;;;;;;62.28;23.98;;;;;;;4.67;100.00;99155.72;20923950;28;20579;-73
2021/12/27 06:18:00;;;;;;;67.22;24.77;;;;;;;4.65;100.00;99158.34;20874667;28;20525;-73
2021/12/27 06:28:01;;;;;;;49.83;22.25;;;;;;;4.66;100.00;99152.25;20869317;28;20482;-74
2021/12/27 06:38:03;;;;;;;49.03;21.15;;;;;;;4.71;100.00;99142.69;20866507;28;20041;-73
2021/12/27 06:48:05;;;;;;;46.63;21.02;;;;;;;4.71;100.00;99153.06;20865641;28;20053;-73
2021/12/27 06:58:06;;;;;;;42.03;20.58;;;;;;;4.70;100.00;99138.41;20864792;28;20072;-74
2021/12/27 07:08:09;;;;;;;68.32;30.70;;;;;;;4.76;100.00;99140.06;20864093;28;20450;-73
2021/12/27 07:18:23;;;;;;;56.55;24.27;;;;;;;4.75;100.00;99134.00;20863532;28;20092;-73
2021/12/27 07:28:25;;;;;;;57.83;25.57;;;;;;;4.85;100.00;99124.38;20862845;28;20414;-74
2021/12/27 07:38:26;;;;;;;74.13;33.35;;;;;;;4.82;100.00;99135.63;20862099;28;20456;-74
2021/12/27 07:48:27;;;;;;;63.35;29.73;;;;;;;4.88;100.00;99145.91;20860690;28;20496;-74
2021/12/27 07:58:29;;;;;;;60.72;30.55;;;;;;;5.02;100.00;99137.97;20860500;28;20490;-75
2021/12/27 08:08:30;;;;;;;48.17;25.70;;;;;;;5.09;100.00;99113.66;20860145;28;20099;-75
2021/12/27 08:18:32;;;;;;;39.55;20.90;;;;;;;5.26;100.00;99115.13;20854402;28;20053;-74
2021/12/27 08:28:34;;;;;;;36.60;19.90;;;;;;;5.36;100.00;99120.16;20810099;28;20046;-74
2021/12/27 08:38:35;;;;;;;47.38;24.10;;;;;;;5.38;100.00;99121.00;20840723;28;20462;-74
2021/12/27 08:48:37;;;;;;;58.70;32.35;;;;;;;5.50;100.00;99108.72;20850130;28;20049;-75
2021/12/27 08:58:38;;;;;;;51.40;27.20;;;;;;;5.43;100.00;99122.69;20850323;28;20102;-75
2021/12/27 09:08:40;;;;;;;57.25;30.83;;;;;;;5.53;100.00;99103.47;20808155;28;20499;-75
2021/12/27 09:18:42;;;;;;;46.60;25.10;;;;;;;5.71;100.00;99098.00;20847139;28;20060;-75
2021/12/27 09:28:44;;;;;;;35.50;19.00;;;;;;;5.80;100.00;99089.19;20848484;28;20122;-75
2021/12/27 09:38:45;;;;;;;32.50;18.48;;;;;;;5.86;100.00;99082.13;20847550;28;20478;-75
2021/12/27 09:48:49;;;;;;;32.17;18.70;;;;;;;6.29;100.00;99060.56;20854263;28;20114;-75
2021/12/27 09:58:50;;;;;;;32.03;19.25;;;;;;;6.61;100.00;99039.13;20863000;28;20048;-75
2021/12/27 10:08:55;;;;;;;25.63;15.00;;;;;;;6.68;100.00;99032.03;20863933;28;20053;-77
2021/12/27 10:18:58;;;;;;;28.03;16.83;;;;;;;6.98;100.00;99027.03;20863753;28;20041;-77
2021/12/27 10:29:27;;;;;;;24.38;15.02;;;;;;;7.17;100.00;99020.50;20863768;28;20061;-77
2021/12/27 10:39:54;;;;;;;22.83;14.48;;;;;;;7.35;100.00;99008.78;20859746;28;20321;-75
2021/12/27 10:50:02;;;;;;;23.92;13.65;;;;;;;7.29;100.00;99009.78;20858487;28;20049;-76
2021/12/27 11:00:19;;;;;;;19.05;12.35;;;;;;;7.40;100.00;99001.69;20856622;28;20583;-76
2021/12/27 11:10:21;;;;;;;18.20;12.05;;;;;;;7.69;100.00;98993.13;20861447;28;20041;-76
2021/12/27 11:20:24;;;;;;;17.30;11.13;;;;;;;7.82;100.00;98991.06;20856028;28;20049;-76
2021/12/27 11:30:29;;;;;;;16.05;10.65;;;;;;;7.77;100.00;98985.13;20856143;28;20037;-76
2021/12/27 11:40:46;;;;;;;18.08;11.95;;;;;;;7.85;100.00;98978.78;20855686;28;20559;-76
2021/12/27 11:51:07;;;;;;;18.45;11.20;;;;;;;7.82;100.00;98983.25;20855401;28;20482;-76
2021/12/27 12:01:21;;;;;;;14.55;9.73;;;;;;;7.97;100.00;98975.00;20856617;28;20057;-76
2021/12/27 12:11:32;;;;;;;13.82;9.30;;;;;;;8.06;100.00;98976.50;20851937;28;20055;-76
2021/12/27 12:21:33;;;;;;;17.52;8.23;;;;;;;8.09;100.00;98966.81;20851576;28;20091;-76
2021/12/27 12:31:35;;;;;;;23.63;12.10;;;;;;;8.19;100.00;98970.00;20851474;28;20052;-76
2021/12/27 12:41:36;;;;;;;16.15;9.02;;;;;;;8.18;100.00;98973.53;20850654;28;20336;-76
2021/12/27 12:51:45;;;;;;;14.10;8.07;;;;;;;8.14;100.00;98971.91;20850452;28;20052;-76
2021/12/27 13:02:14;;;;;;;24.17;13.05;;;;;;;8.26;100.00;98948.09;20848753;28;20106;-76
2021/12/27 13:12:25;;;;;;;15.75;9.68;;;;;;;8.15;100.00;98947.56;20849178;28;20156;-76
2021/12/27 13:22:47;;;;;;;13.48;8.63;;;;;;;7.99;100.00;98944.53;20812549;28;20095;-76
2021/12/27 13:32:48;;;;;;;15.25;9.38;;;;;;;7.92;100.00;98941.25;20866320;28;20106;-75
2021/12/27 13:42:50;;;;;;;15.55;9.60;;;;;;;8.02;100.00;98938.38;20864945;28;20490;-75
2021/12/27 13:52:53;;;;;;;20.25;11.65;;;;;;;7.98;100.00;98935.00;20865377;28;20053;-76
2021/12/27 14:02:58;;;;;;;36.65;23.23;;;;;;;7.98;100.00;98921.97;20865952;28;20391;-76
2021/12/27 14:13:01;;;;;;;37.55;17.95;;;;;;;7.89;100.00;98917.03;20866163;28;20060;-76
2021/12/27 14:23:10;;;;;;;34.65;16.85;;;;;;;7.74;100.00;98907.88;20862859;28;20054;-77
2021/12/27 14:33:16;;;;;;;29.25;14.05;;;;;;;7.66;100.00;98904.63;20819807;28;20045;-76
2021/12/27 14:43:25;;;;;;;24.77;14.35;;;;;;;7.58;100.00;98923.09;20850746;28;20457;-76
2021/12/27 14:53:26;;;;;;;24.20;15.82;;;;;;;7.50;100.00;98925.03;20859284;28;20045;-76
2021/12/27 15:03:30;;;;;;;36.08;22.13;;;;;;;7.53;100.00;98918.91;20858032;28;20045;-76
2021/12/27 15:13:33;;;;;;;33.05;19.77;;;;;;;7.43;100.00;98908.75;20862677;28;20071;-76
2021/12/27 15:23:36;;;;;;;33.10;19.90;;;;;;;7.35;100.00;98902.88;20856234;28;20053;-76
2021/12/27 15:33:37;;;;;;;38.95;23.60;;;;;;;7.25;100.00;98919.63;20855733;28;20046;-75
2021/12/27 15:43:39;;;;;;;34.20;22.08;;;;;;;7.25;100.00;98930.06;20854763;28;20103;-75
2021/12/27 15:53:42;;;;;;;35.38;24.02;;;;;;;7.16;100.00;98938.94;20854665;28;20410;-76
2021/12/27 16:03:43;;;;;;;43.65;26.08;;;;;;;7.21;100.00;98928.41;20853372;28;20048;-74
2021/12/27 16:13:48;;;;;;;39.47;26.23;;;;;;;7.17;100.00;98932.84;20853331;28;20049;-74
2021/12/27 16:23:50;;;;;;;72.55;45.17;;;;;;;7.19;100.00;98930.22;20851820;28;20444;-74
2021/12/27 16:33:54;;;;;;;60.03;38.90;;;;;;;7.12;100.00;98933.84;20851540;28;20079;-74
2021/12/27 16:43:55;;;;;;;41.60;27.92;;;;;;;6.94;100.00;98946.41;20849196;28;20094;-74
2021/12/27 16:53:57;;;;;;;40.65;27.30;;;;;;;6.87;100.00;98947.47;20849817;28;20071;-74
2021/12/27 17:03:58;;;;;;;44.22;28.77;;;;;;;6.85;100.00;98951.88;20848781;28;20054;-74
2021/12/27 17:14:00;;;;;;;44.40;29.90;;;;;;;6.86;100.00;98963.97;20890165;22;20087;-82
2021/12/27 17:24:03;;;;;;;45.47;30.88;;;;;;;6.88;100.00;98943.97;20878471;28;20049;-81
2021/12/27 17:34:04;;;;;;;44.33;29.80;;;;;;;6.83;100.00;98953.63;20933115;28;20056;-82
2021/12/27 17:44:06;;;;;;;41.40;29.98;;;;;;;6.80;100.00;98964.09;20968853;28;20109;-82
2021/12/27 17:54:07;;;;;;;45.05;31.20;;;;;;;6.83;100.00;98964.03;20938005;28;20136;-82
2021/12/27 18:04:09;;;;;;;47.53;31.05;;;;;;;6.84;100.00;98975.31;20965988;28;20074;-82
2021/12/27 18:14:10;;;;;;;48.45;31.10;;;;;;;6.90;100.00;98978.63;21012459;28;20078;-81
2021/12/27 18:24:12;;;;;;;59.58;36.35;;;;;;;6.93;100.00;98985.50;20961509;28;20070;-82
2021/12/27 18:34:14;;;;;;;61.05;37.55;;;;;;;7.04;100.00;98990.44;20983224;28;20045;-82
2021/12/27 18:44:16;;;;;;;33.05;21.27;;;;;;;7.15;100.00;98983.25;20971316;28;20117;-82
2021/12/27 18:54:18;;;;;;;31.38;18.23;;;;;;;7.22;100.00;98973.53;20976886;28;20512;-82
2021/12/27 19:04:20;;;;;;;23.35;15.40;;;;;;;7.27;100.00;98982.91;20928267;28;20103;-82
2021/12/27 19:14:21;;;;;;;27.00;17.30;;;;;;;7.35;100.00;98982.75;20974251;28;20497;-81
2021/12/27 19:24:23;;;;;;;19.73;13.07;;;;;;;7.34;100.00;98979.28;20978949;28;20093;-82
2021/12/27 19:34:25;;;;;;;12.65;7.80;;;;;;;7.46;100.00;98986.75;20975667;28;20040;-82
2021/12/27 19:44:29;;;;;;;9.82;6.03;;;;;;;7.58;100.00;98987.38;20969525;28;20056;-82
2021/12/27 19:54:30;;;;;;;7.78;3.90;;;;;;;7.68;100.00;98975.81;20977540;28;20093;-82
2021/12/27 20:04:34;;;;;;;9.10;4.97;;;;;;;7.71;100.00;98976.59;20974057;28;20049;-82
2021/12/27 20:14:35;;;;;;;10.60;6.85;;;;;;;7.70;100.00;98974.00;20957184;28;20100;-82
2021/12/27 20:24:37;;;;;;;10.43;6.03;;;;;;;7.77;100.00;98977.31;20978142;28;20473;-83
2021/12/27 20:34:39;;;;;;;11.50;7.65;;;;;;;7.76;100.00;98983.38;21000365;28;20486;-82
2021/12/27 20:44:40;;;;;;;10.88;5.80;;;;;;;7.78;100.00;98986.81;20943414;28;20071;-82
2021/12/27 20:54:42;;;;;;;10.63;6.68;;;;;;;7.76;100.00;98984.28;20953476;28;20049;-82
2021/12/27 21:04:44;;;;;;;10.02;6.22;;;;;;;7.85;100.00;98994.41;20924470;28;20048;-82
2021/12/27 21:14:45;;;;;;;12.75;7.63;;;;;;;7.87;100.00;98991.78;20972440;28;20047;-82
2021/12/27 21:24:47;;;;;;;16.23;9.52;;;;;;;8.02;100.00;99001.78;20933251;28;20093;-83
2021/12/27 21:34:48;;;;;;;18.52;10.38;;;;;;;7.93;100.00;98997.69;20968061;28;20049;-82
2021/12/27 21:44:50;;;;;;;13.95;9.30;;;;;;;7.98;100.00;99000.16;20961357;28;20067;-81
2021/12/27 21:54:52;;;;;;;16.85;9.50;;;;;;;7.97;100.00;99004.53;20973778;28;20045;-82
2021/12/27 22:04:56;;;;;;;14.05;9.07;;;;;;;8.04;100.00;99009.56;20921584;28;20127;-82
2021/12/27 22:14:58;;;;;;;14.80;8.27;;;;;;;8.06;100.00;99007.78;20928431;28;20514;-82
2021/12/27 22:25:02;;;;;;;14.95;7.68;;;;;;;7.79;100.00;98998.94;20945171;28;20135;-82
2021/12/27 22:35:04;;;;;;;17.77;8.07;;;;;;;7.87;100.00;99008.28;20917041;28;20454;-82
2021/12/27 22:45:08;;;;;;;17.42;10.52;;;;;;;7.72;100.00;98993.06;20912098;28;20049;-82
2021/12/27 22:55:12;;;;;;;16.23;7.37;;;;;;;7.66;100.00;98991.44;20920521;28;20076;-82
2021/12/27 23:05:14;;;;;;;11.13;6.40;;;;;;;7.83;100.00;98985.81;20976705;28;20042;-82
2021/12/27 23:15:16;;;;;;;12.77;6.10;;;;;;;7.67;100.00;98969.75;21011576;28;20105;-83
2021/12/27 23:25:18;;;;;;;14.57;6.28;;;;;;;7.61;100.00;98982.06;21015580;28;20487;-83
2021/12/27 23:35:20;;;;;;;14.60;5.50;;;;;;;7.73;100.00;98971.31;21027956;28;20563;-83
2021/12/27 23:45:22;;;;;;;14.15;5.18;;;;;;;7.81;100.00;98948.53;21008940;28;20078;-83
2021/12/27 23:55:24;;;;;;;22.00;5.40;;;;;;;7.80;100.00;98944.19;21006302;28;20044;-82
